createdAt,value
2018-06-16T00:00:39.348Z,7.77
2018-06-16T00:03:07.623Z,8.10
2018-06-16T00:05:36.030Z,9.30
2018-06-16T00:08:04.584Z,8.13
2018-06-16T00:10:32.978Z,7.57
2018-06-16T00:13:01.223Z,8.30
2018-06-16T00:15:29.678Z,8.50
2018-06-16T00:17:58.134Z,9.00
2018-06-16T00:20:26.778Z,9.47
2018-06-16T00:22:54.944Z,9.30
2018-06-16T00:25:23.334Z,8.10
2018-06-16T00:27:51.782Z,8.70
2018-06-16T00:30:20.201Z,10.33
2018-06-16T00:32:48.388Z,9.00
2018-06-16T00:35:16.784Z,10.60
2018-06-16T00:37:45.229Z,9.10
2018-06-16T00:40:13.663Z,10.00
2018-06-16T00:42:42.149Z,9.30
2018-06-16T00:45:10.541Z,9.43
2018-06-16T00:47:38.937Z,9.70
2018-06-16T00:50:07.367Z,10.13
2018-06-16T00:52:36.005Z,9.43
2018-06-16T00:55:04.656Z,9.10
2018-06-16T00:57:40.517Z,14.80
2018-06-16T01:00:09.925Z,9.70
2018-06-16T01:02:38.423Z,9.43
2018-06-16T01:05:06.810Z,10.67
2018-06-16T01:07:35.325Z,20.70
2018-06-16T01:10:03.732Z,10.20
2018-06-16T01:12:32.127Z,10.13
2018-06-16T01:15:00.536Z,10.13
2018-06-16T01:17:28.927Z,10.97
2018-06-16T01:19:58.303Z,9.70
2018-06-16T01:22:26.699Z,11.63
2018-06-16T01:24:55.124Z,14.50
2018-06-16T01:27:23.563Z,10.83
2018-06-16T01:29:51.967Z,9.97
2018-06-16T01:32:20.568Z,14.43
2018-06-16T01:34:49.248Z,9.90
2018-06-16T01:37:17.884Z,10.87
2018-06-16T01:39:46.157Z,11.50
2018-06-16T01:42:14.615Z,11.50
2018-06-16T01:44:43.044Z,15.13
2018-06-16T01:47:11.321Z,11.10
2018-06-16T01:49:39.805Z,11.80
2018-06-16T01:52:09.393Z,10.70
2018-06-16T01:54:37.684Z,12.00
2018-06-16T01:57:05.918Z,10.43
2018-06-16T01:59:34.330Z,11.27
2018-06-16T02:02:02.515Z,11.33
2018-06-16T02:04:30.785Z,10.80
2018-06-16T02:06:59.260Z,10.40
2018-06-16T02:09:27.684Z,10.57
2018-06-16T02:11:56.159Z,12.13
2018-06-16T02:14:24.597Z,16.93
2018-06-16T02:16:53.012Z,10.93
2018-06-16T02:19:21.399Z,10.67
2018-06-16T02:21:49.863Z,10.53
2018-06-16T02:24:18.422Z,14.47
2018-06-16T02:26:46.908Z,12.53
2018-06-16T02:29:15.319Z,12.07
2018-06-16T02:31:43.739Z,10.73
2018-06-16T02:34:12.137Z,11.27
2018-06-16T02:36:40.572Z,11.50
2018-06-16T02:39:10.477Z,11.27
2018-06-16T02:41:38.894Z,11.53
2018-06-16T02:44:07.358Z,11.40
2018-06-16T02:46:35.806Z,11.87
2018-06-16T02:49:04.227Z,11.50
2018-06-16T02:51:32.690Z,11.57
2018-06-16T02:54:01.110Z,11.83
2018-06-16T02:56:29.638Z,13.13
2018-06-16T02:58:58.108Z,18.17
2018-06-16T03:01:26.498Z,11.33
2018-06-16T03:03:54.884Z,12.00
2018-06-16T03:06:23.278Z,11.20
2018-06-16T03:08:51.717Z,10.93
2018-06-16T03:11:19.961Z,10.90
2018-06-16T03:13:48.453Z,9.50
2018-06-16T03:16:16.934Z,10.57
2018-06-16T03:18:45.198Z,17.07
2018-06-16T03:21:13.594Z,11.83
2018-06-16T03:23:42.102Z,11.50
2018-06-16T03:26:10.535Z,11.40
2018-06-16T03:28:39.096Z,12.73
2018-06-16T03:31:07.498Z,11.20
2018-06-16T03:33:35.942Z,11.20
2018-06-16T03:36:04.473Z,12.20
2018-06-16T03:38:32.953Z,11.03
2018-06-16T03:41:01.315Z,10.37
2018-06-16T03:43:29.764Z,10.90
2018-06-16T03:45:58.194Z,11.63
2018-06-16T03:48:26.654Z,9.80
2018-06-16T03:50:55.289Z,12.00
2018-06-16T03:53:23.900Z,12.30
2018-06-16T03:55:52.327Z,10.83
2018-06-16T03:58:20.754Z,10.67
2018-06-16T04:00:49.166Z,10.77
2018-06-16T04:03:17.619Z,11.33
2018-06-16T04:05:46.092Z,11.53
2018-06-16T04:08:14.525Z,11.10
2018-06-16T04:10:43.891Z,11.90
2018-06-16T04:13:12.335Z,12.00
2018-06-16T04:15:41.301Z,11.30
2018-06-16T04:18:09.711Z,9.97
2018-06-16T04:20:38.151Z,10.70
2018-06-16T04:23:06.613Z,10.67
2018-06-16T04:25:35.105Z,13.93
2018-06-16T04:28:03.519Z,11.20
2018-06-16T04:30:31.683Z,13.53
2018-06-16T04:33:00.141Z,11.10
2018-06-16T04:35:28.530Z,11.60
2018-06-16T04:37:57.049Z,10.60
2018-06-16T04:40:26.307Z,11.27
2018-06-16T04:42:54.752Z,10.73
2018-06-16T04:45:23.292Z,10.37
2018-06-16T04:47:51.700Z,16.17
2018-06-16T04:50:20.105Z,12.37
2018-06-16T04:52:48.615Z,15.43
2018-06-16T04:55:17.191Z,11.20
2018-06-16T04:57:45.653Z,10.77
2018-06-16T05:00:14.061Z,11.33
2018-06-16T05:02:42.568Z,11.50
2018-06-16T05:05:10.775Z,10.43
2018-06-16T05:07:39.491Z,10.83
2018-06-16T05:10:08.130Z,11.63
2018-06-16T05:12:36.552Z,10.80
2018-06-16T05:15:05.285Z,10.30
2018-06-16T05:17:33.805Z,10.70
2018-06-16T05:20:02.265Z,10.87
2018-06-16T05:22:30.685Z,11.07
2018-06-16T05:24:59.294Z,10.73
2018-06-16T05:27:27.694Z,10.87
2018-06-16T05:29:55.890Z,10.47
2018-06-16T05:32:24.352Z,10.10
2018-06-16T05:34:52.729Z,11.00
2018-06-16T05:37:21.207Z,10.07
2018-06-16T05:39:49.641Z,10.73
2018-06-16T05:42:18.015Z,10.60
2018-06-16T05:44:46.426Z,10.37
2018-06-16T05:47:14.841Z,10.43
2018-06-16T05:49:43.368Z,10.27
2018-06-16T05:52:11.788Z,11.17
2018-06-16T05:54:40.179Z,9.43
2018-06-16T05:57:08.650Z,8.50
2018-06-16T05:59:36.778Z,9.00
2018-06-16T06:02:05.233Z,8.73
2018-06-16T06:04:33.823Z,8.53
2018-06-16T06:07:02.446Z,8.13
2018-06-16T06:09:30.724Z,9.03
2018-06-16T06:11:59.182Z,8.87
2018-06-16T06:14:27.567Z,8.17
2018-06-16T06:16:55.987Z,8.63
2018-06-16T06:19:24.374Z,8.23
2018-06-16T06:21:52.825Z,7.50
2018-06-16T06:24:21.266Z,7.90
2018-06-16T06:26:50.872Z,9.33
2018-06-16T06:29:19.257Z,8.17
2018-06-16T06:31:47.655Z,9.67
2018-06-16T06:34:16.143Z,9.83
2018-06-16T06:36:44.649Z,9.10
2018-06-16T06:39:13.053Z,12.70
2018-06-16T06:41:41.490Z,9.47
2018-06-16T06:44:09.913Z,11.30
2018-06-16T06:46:38.328Z,13.33
2018-06-16T06:49:06.752Z,8.37
2018-06-16T06:51:35.232Z,9.80
2018-06-16T06:54:03.643Z,9.87
2018-06-16T06:56:32.118Z,8.70
2018-06-16T06:59:00.627Z,9.77
2018-06-16T07:01:29.074Z,13.37
2018-06-16T07:03:57.705Z,9.77
2018-06-16T07:06:26.080Z,9.13
2018-06-16T07:08:54.557Z,10.10
2018-06-16T07:11:23.081Z,8.47
2018-06-16T07:13:52.177Z,7.83
2018-06-16T07:16:20.427Z,9.30
2018-06-16T07:18:48.863Z,7.90
2018-06-16T07:21:17.301Z,8.30
2018-06-16T07:23:45.781Z,7.97
2018-06-16T07:26:14.197Z,8.47
2018-06-16T07:28:42.618Z,8.50
2018-06-16T07:31:11.094Z,9.00
2018-06-16T07:33:39.817Z,8.60
2018-06-16T07:36:08.361Z,8.17
2018-06-16T07:38:36.826Z,9.40
2018-06-16T07:41:05.280Z,9.30
2018-06-16T07:43:33.905Z,14.40
2018-06-16T07:46:02.646Z,17.03
2018-06-16T07:48:31.028Z,8.37
2018-06-16T07:51:00.201Z,9.73
2018-06-16T07:53:28.825Z,6.00
2018-06-16T07:55:57.470Z,7.07
2018-06-16T07:58:25.877Z,6.90
2018-06-16T08:00:54.343Z,5.60
2018-06-16T08:03:22.829Z,5.20
2018-06-16T08:05:50.980Z,4.10
2018-06-16T08:08:19.432Z,4.73
2018-06-16T08:10:47.940Z,5.10
2018-06-16T08:13:16.404Z,4.17
2018-06-16T08:15:44.823Z,6.13
2018-06-16T08:18:13.039Z,4.20
2018-06-16T08:20:41.449Z,4.90
2018-06-16T08:23:11.422Z,3.37
2018-06-16T08:25:39.905Z,3.30
2018-06-16T08:28:08.503Z,3.63
2018-06-16T08:30:37.006Z,3.30
2018-06-16T08:33:05.474Z,3.60
2018-06-16T08:35:33.917Z,3.10
2018-06-16T08:38:02.344Z,2.83
2018-06-16T08:40:30.802Z,3.20
2018-06-16T08:42:59.527Z,3.30
2018-06-16T08:45:27.743Z,6.50
2018-06-16T08:47:56.339Z,4.27
2018-06-16T08:50:24.885Z,4.67
2018-06-16T08:52:53.343Z,3.13
2018-06-16T08:55:21.762Z,5.10
2018-06-16T08:57:50.198Z,3.20
2018-06-16T09:00:18.661Z,3.17
2018-06-16T09:02:47.265Z,2.60
2018-06-16T09:05:15.739Z,2.53
2018-06-16T09:07:44.244Z,2.50
2018-06-16T09:10:12.801Z,2.83
2018-06-16T09:12:41.340Z,2.50
2018-06-16T09:15:09.832Z,3.00
2018-06-16T09:17:38.286Z,2.17
2018-06-16T09:20:06.734Z,6.30
2018-06-16T09:22:35.222Z,1.70
2018-06-16T09:25:03.665Z,3.57
2018-06-16T09:27:32.211Z,1.93
2018-06-16T09:30:00.645Z,2.00
2018-06-16T09:32:29.127Z,1.93
2018-06-16T09:34:57.553Z,4.30
2018-06-16T09:37:25.932Z,1.63
2018-06-16T09:39:54.322Z,1.90
2018-06-16T09:42:22.742Z,1.90
2018-06-16T09:44:51.166Z,1.47
2018-06-16T09:47:19.586Z,1.53
2018-06-16T09:49:48.085Z,1.50
2018-06-16T09:52:16.684Z,1.90
2018-06-16T09:54:45.024Z,2.93
2018-06-16T09:57:13.678Z,3.30
2018-06-16T09:59:48.407Z,1.03
2018-06-16T10:02:16.866Z,3.90
2018-06-16T10:04:45.226Z,1.40
2018-06-16T10:07:13.755Z,0.93
2018-06-16T10:09:42.178Z,3.73
2018-06-16T10:12:10.826Z,2.30
2018-06-16T10:14:39.311Z,1.13
2018-06-16T10:17:07.893Z,2.57
2018-06-16T10:19:36.300Z,1.65
2018-06-16T10:22:04.698Z,2.25
2018-06-16T10:24:33.122Z,0.88
2018-06-16T10:27:01.591Z,3.35
2018-06-16T10:29:29.908Z,1.30
2018-06-16T10:31:58.411Z,1.17
2018-06-16T10:34:26.835Z,2.57
2018-06-16T10:36:55.282Z,1.30
2018-06-16T10:39:23.781Z,1.30
2018-06-16T10:41:52.236Z,2.70
2018-06-16T10:44:20.667Z,1.73
2018-06-16T10:46:48.783Z,8.50
2018-06-16T10:49:17.197Z,1.07
2018-06-16T10:51:45.391Z,1.20
2018-06-16T10:54:13.990Z,1.00
2018-06-16T10:56:42.479Z,1.00
2018-06-16T10:59:10.948Z,2.33
2018-06-16T11:01:39.427Z,3.60
2018-06-16T11:04:07.867Z,2.47
2018-06-16T11:06:36.381Z,1.70
2018-06-16T11:09:06.877Z,2.20
2018-06-16T11:11:35.522Z,1.80
2018-06-16T11:14:03.918Z,4.10
2018-06-16T11:16:32.398Z,4.73
2018-06-16T11:19:01.054Z,2.70
2018-06-16T11:21:29.413Z,1.73
2018-06-16T11:23:57.646Z,4.27
2018-06-16T11:26:26.177Z,2.63
2018-06-16T11:28:54.866Z,6.47
2018-06-16T11:31:23.460Z,2.20
2018-06-16T11:33:51.764Z,2.00
2018-06-16T11:36:20.309Z,2.63
2018-06-16T11:38:48.553Z,2.30
2018-06-16T11:41:17.007Z,3.17
2018-06-16T11:43:45.416Z,5.00
2018-06-16T11:46:13.778Z,2.43
2018-06-16T11:51:16.915Z,2.90
2018-06-16T11:53:46.181Z,2.67
2018-06-16T11:56:14.935Z,2.60
2018-06-16T11:58:43.428Z,3.00
2018-06-16T12:01:11.730Z,2.80
2018-06-16T12:03:40.303Z,2.67
2018-06-16T12:06:08.705Z,2.37
2018-06-16T12:08:37.222Z,3.47
2018-06-16T12:11:05.792Z,2.63
2018-06-16T12:13:33.989Z,3.00
2018-06-16T12:16:02.447Z,3.67
2018-06-16T12:18:30.941Z,4.30
2018-06-16T12:20:59.519Z,9.57
2018-06-16T12:23:27.857Z,4.00
2018-06-16T12:25:56.331Z,4.27
2018-06-16T12:28:24.760Z,6.00
2018-06-16T12:30:53.235Z,4.03
2018-06-16T12:33:21.727Z,3.87
2018-06-16T12:35:49.925Z,4.40
2018-06-16T12:38:18.677Z,4.33
2018-06-16T12:40:47.106Z,4.97
2018-06-16T12:43:15.624Z,4.50
2018-06-16T12:45:44.039Z,5.80
2018-06-16T12:48:12.531Z,5.97
2018-06-16T12:50:41.097Z,4.83
2018-06-16T12:53:09.668Z,4.23
2018-06-16T12:55:37.859Z,7.33
2018-06-16T12:58:06.268Z,5.73
2018-06-16T13:00:34.719Z,6.43
2018-06-16T13:03:03.202Z,7.10
2018-06-16T13:05:31.745Z,6.20
2018-06-16T13:08:00.301Z,8.83
2018-06-16T13:10:28.885Z,4.90
2018-06-16T13:12:57.110Z,5.97
2018-06-16T13:15:25.380Z,5.13
2018-06-16T13:17:54.090Z,4.63
2018-06-16T13:20:22.514Z,4.87
2018-06-16T13:22:50.900Z,5.00
2018-06-16T13:25:19.414Z,5.93
2018-06-16T13:27:47.646Z,4.90
2018-06-16T13:30:16.230Z,4.77
2018-06-16T13:32:44.681Z,4.83
2018-06-16T13:35:13.115Z,4.80
2018-06-16T13:37:41.660Z,6.90
2018-06-16T13:40:10.215Z,5.40
2018-06-16T13:42:38.653Z,4.93
2018-06-16T13:45:07.091Z,7.33
2018-06-16T13:47:35.843Z,6.83
2018-06-16T13:50:04.506Z,4.60
2018-06-16T13:52:33.004Z,4.90
2018-06-16T13:55:01.450Z,7.03
2018-06-16T13:57:29.926Z,5.10
2018-06-16T13:59:58.416Z,5.57
2018-06-16T14:02:26.880Z,4.97
2018-06-16T14:04:55.315Z,4.57
2018-06-16T14:07:23.791Z,5.47
2018-06-16T14:09:52.233Z,4.83
2018-06-16T14:12:20.854Z,5.07
2018-06-16T14:14:49.563Z,3.73
2018-06-16T14:17:17.735Z,5.00
2018-06-16T14:19:45.957Z,5.00
2018-06-16T14:22:14.532Z,5.33
2018-06-16T14:24:43.111Z,6.07
2018-06-16T14:27:11.766Z,5.20
2018-06-16T14:29:40.222Z,4.87
2018-06-16T14:32:08.727Z,13.70
2018-06-16T14:34:37.264Z,5.33
2018-06-16T14:37:05.632Z,7.27
2018-06-16T14:39:34.072Z,6.30
2018-06-16T14:42:02.837Z,5.90
2018-06-16T14:44:31.342Z,4.17
2018-06-16T14:46:59.631Z,4.73
2018-06-16T14:49:28.063Z,4.50
2018-06-16T14:51:56.538Z,4.73
2018-06-16T14:54:25.156Z,4.80
2018-06-16T14:56:53.329Z,6.97
2018-06-16T14:59:21.764Z,3.97
2018-06-16T15:01:50.292Z,4.70
2018-06-16T15:04:18.946Z,5.43
2018-06-16T15:06:47.480Z,5.60
2018-06-16T15:09:15.916Z,4.73
2018-06-16T15:11:44.413Z,4.80
2018-06-16T15:14:12.971Z,5.63
2018-06-16T15:16:41.487Z,5.30
2018-06-16T15:19:10.084Z,4.10
2018-06-16T15:21:38.929Z,11.90
2018-06-16T15:24:07.432Z,8.70
2018-06-16T15:26:36.029Z,4.67
2018-06-16T15:29:04.658Z,4.10
2018-06-16T15:31:33.248Z,4.23
2018-06-16T15:34:01.748Z,8.50
2018-06-16T15:36:30.337Z,4.70
2018-06-16T15:38:58.909Z,10.70
2018-06-16T15:41:27.406Z,4.80
2018-06-16T15:43:55.974Z,5.17
2018-06-16T15:46:24.448Z,5.43
2018-06-16T15:48:52.934Z,5.80
2018-06-16T15:51:21.548Z,6.13
2018-06-16T15:53:50.144Z,4.60
2018-06-16T15:56:18.610Z,6.83
2018-06-16T15:58:47.047Z,5.43
2018-06-16T16:01:15.489Z,5.83
2018-06-16T16:03:43.806Z,5.20
2018-06-16T16:06:12.373Z,7.53
2018-06-16T16:08:40.780Z,11.73
2018-06-16T16:11:09.165Z,5.10
2018-06-16T16:13:39.264Z,5.60
2018-06-16T16:16:07.676Z,5.80
2018-06-16T16:18:35.982Z,4.07
2018-06-16T16:21:04.338Z,6.23
2018-06-16T16:23:33.109Z,6.80
2018-06-16T16:26:01.559Z,5.20
2018-06-16T16:28:30.210Z,5.67
2018-06-16T16:30:58.462Z,4.87
2018-06-16T16:33:26.948Z,5.33
2018-06-16T16:35:55.511Z,4.97
2018-06-16T16:38:23.909Z,10.73
2018-06-16T16:40:52.321Z,5.70
2018-06-16T16:43:20.951Z,5.70
2018-06-16T16:45:49.555Z,4.60
2018-06-16T16:48:18.098Z,6.53
2018-06-16T16:50:46.631Z,5.00
2018-06-16T16:53:15.109Z,8.20
2018-06-16T16:55:43.532Z,5.57
2018-06-16T16:58:12.241Z,4.40
2018-06-16T17:00:40.646Z,5.67
2018-06-16T17:03:09.079Z,5.70
2018-06-16T17:05:37.921Z,5.77
2018-06-16T17:08:06.365Z,7.97
2018-06-16T17:10:34.953Z,6.80
2018-06-16T17:13:03.685Z,5.90
2018-06-16T17:15:32.454Z,17.63
2018-06-16T17:18:01.047Z,5.80
2018-06-16T17:20:29.604Z,6.80
2018-06-16T17:23:04.883Z,6.20
2018-06-16T17:25:33.366Z,9.13
2018-06-16T17:28:01.644Z,5.47
2018-06-16T17:30:30.057Z,5.90
2018-06-16T17:32:58.485Z,5.53
2018-06-16T17:35:27.326Z,5.07
2018-06-16T17:37:56.022Z,11.17
2018-06-16T17:40:24.459Z,5.60
2018-06-16T17:42:52.999Z,7.67
2018-06-16T17:45:21.486Z,5.47
2018-06-16T17:47:50.492Z,6.60
2018-06-16T17:50:19.055Z,8.70
2018-06-16T17:52:47.839Z,6.00
2018-06-16T17:55:16.473Z,5.83
2018-06-16T17:57:44.868Z,5.80
2018-06-16T18:00:13.526Z,5.27
2018-06-16T18:02:41.829Z,6.20
2018-06-16T18:05:10.236Z,8.27
2018-06-16T18:07:38.952Z,10.93
2018-06-16T18:10:07.446Z,6.30
2018-06-16T18:12:35.870Z,6.17
2018-06-16T18:15:04.520Z,10.00
2018-06-16T18:17:32.900Z,6.53
2018-06-16T18:20:01.975Z,6.17
2018-06-16T18:22:30.561Z,8.40
2018-06-16T18:24:58.922Z,10.50
2018-06-16T18:27:27.522Z,7.83
2018-06-16T18:29:56.008Z,13.63
2018-06-16T18:32:24.370Z,7.53
2018-06-16T18:34:52.878Z,6.50
2018-06-16T18:37:21.127Z,8.10
2018-06-16T18:39:49.730Z,7.87
2018-06-16T18:42:18.436Z,7.30
2018-06-16T18:44:46.647Z,6.63
2018-06-16T18:47:15.221Z,9.43
2018-06-16T18:49:43.749Z,6.47
2018-06-16T18:52:12.260Z,7.90
2018-06-16T18:54:40.872Z,7.30
2018-06-16T18:57:10.766Z,10.00
2018-06-16T18:59:39.270Z,6.57
2018-06-16T19:02:08.022Z,13.10
2018-06-16T19:04:36.348Z,8.80
2018-06-16T19:07:05.040Z,6.30
2018-06-16T19:09:33.638Z,7.40
2018-06-16T19:12:02.316Z,7.67
2018-06-16T19:14:30.888Z,7.17
2018-06-16T19:16:59.441Z,6.63
2018-06-16T19:19:28.278Z,7.80
2018-06-16T19:21:56.975Z,9.63
2018-06-16T19:24:25.505Z,14.93
2018-06-16T19:26:54.377Z,14.40
2018-06-16T19:29:22.687Z,7.60
2018-06-16T19:31:51.318Z,7.40
2018-06-16T19:34:20.645Z,10.57
2018-06-16T19:36:49.066Z,19.47
2018-06-16T19:39:17.598Z,8.30
2018-06-16T19:41:46.448Z,8.53
2018-06-16T19:44:15.314Z,8.23
2018-06-16T19:46:43.888Z,8.30
2018-06-16T19:49:12.441Z,7.77
2018-06-16T19:51:40.688Z,7.53
2018-06-16T19:54:09.355Z,8.40
2018-06-16T19:56:37.750Z,8.07
2018-06-16T19:59:06.224Z,8.93
2018-06-16T20:01:34.654Z,17.77
2018-06-16T20:04:03.245Z,9.60
2018-06-16T20:06:31.860Z,9.93
2018-06-16T20:09:00.216Z,8.37
2018-06-16T20:11:28.780Z,14.87
2018-06-16T20:13:57.166Z,8.90
2018-06-16T20:16:26.126Z,9.67
2018-06-16T20:18:54.537Z,11.37
2018-06-16T20:21:23.765Z,9.57
2018-06-16T20:23:52.235Z,10.87
2018-06-16T20:26:20.819Z,13.37
2018-06-16T20:28:50.099Z,10.17
2018-06-16T20:31:18.582Z,12.67
2018-06-16T20:33:47.542Z,9.83
2018-06-16T20:36:16.071Z,11.40
2018-06-16T20:38:44.474Z,9.90
2018-06-16T20:41:12.945Z,9.87
2018-06-16T20:43:42.402Z,9.60
2018-06-16T20:46:10.826Z,8.87
2018-06-16T20:48:39.301Z,9.00
2018-06-16T20:51:07.709Z,10.40
2018-06-16T20:53:36.369Z,9.10
2018-06-16T20:56:05.401Z,10.03
2018-06-16T20:58:33.868Z,8.67
2018-06-16T21:01:02.318Z,9.70
2018-06-16T21:03:30.737Z,9.80
2018-06-16T21:05:59.137Z,18.60
2018-06-16T21:08:27.368Z,12.90
2018-06-16T21:10:55.885Z,11.07
2018-06-16T21:13:24.339Z,14.90
2018-06-16T21:15:52.744Z,11.60
2018-06-16T21:18:20.983Z,11.00
2018-06-16T21:20:49.381Z,12.33
2018-06-16T21:23:17.785Z,10.13
2018-06-16T21:25:46.101Z,10.50
2018-06-16T21:28:14.730Z,10.33
2018-06-16T21:30:43.142Z,18.10
2018-06-16T21:33:11.336Z,11.27
2018-06-16T21:35:39.765Z,11.87
2018-06-16T21:38:08.180Z,11.47
2018-06-16T21:40:36.567Z,23.80
2018-06-16T21:43:04.702Z,11.43
2018-06-16T21:45:33.157Z,12.53
2018-06-16T21:48:01.603Z,11.57
2018-06-16T21:50:30.111Z,12.40
2018-06-16T21:52:58.549Z,15.17
2018-06-16T21:55:26.817Z,16.77
2018-06-16T21:57:55.225Z,10.40
2018-06-16T22:00:23.662Z,10.57
2018-06-16T22:02:52.223Z,10.07
2018-06-16T22:05:20.600Z,14.57
2018-06-16T22:07:49.229Z,14.30
2018-06-16T22:10:17.559Z,11.20
2018-06-16T22:12:45.936Z,10.80
2018-06-16T22:15:14.351Z,15.23
2018-06-16T22:17:42.619Z,11.13
2018-06-16T22:20:11.035Z,9.90
2018-06-16T22:22:39.447Z,12.40
2018-06-16T22:25:07.866Z,11.37
2018-06-16T22:27:36.294Z,10.37
2018-06-16T22:30:04.725Z,9.53
2018-06-16T22:32:33.115Z,10.70
2018-06-16T22:35:01.520Z,10.70
2018-06-16T22:37:29.931Z,10.77
2018-06-16T22:39:58.405Z,9.80
2018-06-16T22:42:26.811Z,9.83
2018-06-16T22:44:55.258Z,16.67
2018-06-16T22:47:23.660Z,8.80
2018-06-16T22:49:52.159Z,10.47
2018-06-16T22:52:20.588Z,10.23
2018-06-16T22:54:48.942Z,9.03
2018-06-16T22:57:17.229Z,8.93
2018-06-16T22:59:45.644Z,11.87
2018-06-16T23:02:14.129Z,9.87
2018-06-16T23:04:42.536Z,10.20
2018-06-16T23:07:10.961Z,10.90
2018-06-16T23:09:39.336Z,10.80
2018-06-16T23:12:08.401Z,10.17
2018-06-16T23:14:36.873Z,10.50
2018-06-16T23:17:05.377Z,10.83
2018-06-16T23:19:33.668Z,14.20
2018-06-16T23:22:02.417Z,19.77
2018-06-16T23:24:30.707Z,12.10
2018-06-16T23:26:59.128Z,11.17
2018-06-16T23:29:27.567Z,11.97
2018-06-16T23:31:55.960Z,13.17
2018-06-16T23:34:24.236Z,20.70
2018-06-16T23:36:52.689Z,12.17
2018-06-16T23:39:21.084Z,11.23
2018-06-16T23:41:49.368Z,12.80
2018-06-16T23:44:17.705Z,12.17
2018-06-16T23:46:46.201Z,16.73
2018-06-16T23:49:14.687Z,11.50
2018-06-16T23:51:43.126Z,12.03
2018-06-16T23:54:11.554Z,12.23
2018-06-16T23:56:39.790Z,12.67
2018-06-16T23:59:08.171Z,11.30
